Covington, Iowa
Current Conditions -  °F | °C
As of 9:52 PM on Saturday 25 Oct 2014 (Local Time) from KCID Reporting Station
Clear Clear  
Wind Chill:   Ceiling: Unl
Heat Index:   Visibility: 10mi
Dew Point:   Wind: 6mph
Humidity: 64%   Direction: 330°NNW
Pressure: 30.04"   Gusts: NA
Location:  42.0483°N, 91.7982°W
Report Text: KCID 260252Z 33005KT 10SM CLR 09/03 A3004 RMK AO2 SLP176 T00940028 51006
Loading
Personal Weather Stations






























Interactive Weather Map
Tropical Storm Tracking
New forecast layout! Learn more

10-Day Weather Forecast

Advertisements
Track Severe Weather on mobile